Terminal Aerodrome Forecast
Issued by NWS

Current Version | Previous Version | Graphics & Text | Print | Product List | Glossary On
Versions: 1 2 3 4 5 6 7 8 9 10 11 12 13 14 15 16 17 18 19 20 21 22 23 24 25
000
FTUS41 KRLX 212300
TAFCKB
TAF
KCKB 212334Z 2200/2224 23004KT P6SM BKN035
     FM220200 21004KT P6SM BKN035
     FM221300 23004KT 6SM BR OVC035
     FM221400 25005KT 5SM -SHRA OVC030
     FM221800 26007KT P6SM BKN035
     FM222000 29010G15KT P6SM BKN060=

USA.gov is the U.S. government's official web portal to all federal, state and local government web resources and services.